Time,TemperatureF,DewpointF,PressureIn,WindDirection,WindDirectionDegrees,WindSpeedMPH,WindSpeedGustMPH,Humidity,HourlyPrecipIn,Conditions,Clouds,dailyrainin,SoftwareType,DateUTC
2013-08-18 00:01:00,49.8,47.6,30.26,NW,308,0.0,0.0,92,0.00,,,0.00,WeatherCatV1.15B25,2013-08-18 04:01:00,
2013-08-18 00:02:00,49.7,47.5,30.26,NW,308,0.0,0.0,92,0.00,,,0.00,WeatherCatV1.15B25,2013-08-18 04:02:00,
2013-08-18 00:03:00,49.7,47.5,30.26,NW,308,0.0,0.0,92,0.00,,,0.00,WeatherCatV1.15B25,2013-08-18 04:03:00,
2013-08-18 00:05:00,49.7,47.5,30.26,NW,307,0.0,0.0,92,0.00,,,0.00,WeatherCatV1.15B25,2013-08-18 04:05:00,
2013-08-18 00:07:00,49.7,47.8,30.26,NW,308,0.0,0.0,93,0.00,,,0.00,WeatherCatV1.15B25,2013-08-18 04:07:00,
2013-08-18 00:12:00,49.6,47.4,30.26,NW,308,0.0,0.0,92,0.00,,,0.00,WeatherCatV1.15B25,2013-08-18 04:12:00,
2013-08-18 00:17:00,49.5,47.3,30.26,NW,308,0.0,0.0,92,0.00,,,0.00,WeatherCatV1.15B25,2013-08-18 04:17:00,
2013-08-18 00:22:00,49.6,47.7,30.26,NW,308,0.0,0.0,93,0.00,,,0.00,WeatherCatV1.15B25,2013-08-18 04:22:00,
2013-08-18 00:27:00,49.5,47.6,30.26,NW,308,0.0,0.0,93,0.00,,,0.00,WeatherCatV1.15B25,2013-08-18 04:27:00,
2013-08-18 00:32:00,49.5,47.6,30.27,NW,308,0.0,0.0,93,0.00,,,0.00,WeatherCatV1.15B25,2013-08-18 04:32:00,
2013-08-18 00:37:00,49.4,47.5,30.26,NW,308,0.0,0.0,93,0.00,,,0.00,WeatherCatV1.15B25,2013-08-18 04:37:00,
2013-08-18 00:42:00,49.3,47.4,30.27,NW,308,0.0,0.0,93,0.00,,,0.00,WeatherCatV1.15B25,2013-08-18 04:42:00,
2013-08-18 00:47:00,49.4,47.5,30.27,NW,307,0.0,0.0,93,0.00,,,0.00,WeatherCatV1.15B25,2013-08-18 04:47:00,
2013-08-18 00:52:00,49.4,47.5,30.27,NW,308,0.0,0.0,93,0.00,,,0.00,WeatherCatV1.15B25,2013-08-18 04:52:00,
2013-08-18 00:57:00,49.4,47.5,30.27,NW,308,0.0,0.0,93,0.00,,,0.00,WeatherCatV1.15B25,2013-08-18 04:57:00,
2013-08-18 01:02:00,49.3,47.4,30.27,NW,308,0.0,0.0,93,0.00,,,0.00,WeatherCatV1.15B25,2013-08-18 05:02:00,
2013-08-18 01:07:00,49.2,47.3,30.27,NW,308,0.0,0.0,93,0.00,,,0.00,WeatherCatV1.15B25,2013-08-18 05:07:00,
2013-08-18 01:12:00,49.1,47.2,30.27,NW,308,0.0,0.0,93,0.00,,,0.00,WeatherCatV1.15B25,2013-08-18 05:12:00,
2013-08-18 01:17:00,49.0,47.1,30.27,NW,308,0.0,0.0,93,0.00,,,0.00,WeatherCatV1.15B25,2013-08-18 05:17:00,
2013-08-18 01:22:00,49.0,47.1,30.27,NW,308,0.0,0.0,93,0.00,,,0.00,WeatherCatV1.15B25,2013-08-18 05:22:00,
2013-08-18 01:27:00,48.9,47.2,30.27,NW,307,0.0,0.0,94,0.00,,,0.00,WeatherCatV1.15B25,2013-08-18 05:27:00,
2013-08-18 01:32:00,49.0,47.3,30.27,NW,308,0.0,0.0,94,0.00,,,0.00,WeatherCatV1.15B25,2013-08-18 05:32:00,
2013-08-18 01:37:00,49.0,47.3,30.27,NW,307,0.0,0.0,94,0.00,,,0.00,WeatherCatV1.15B25,2013-08-18 05:37:00,
2013-08-18 01:42:00,49.0,47.3,30.27,NW,307,0.0,0.0,94,0.00,,,0.00,WeatherCatV1.15B25,2013-08-18 05:42:00,
2013-08-18 01:47:00,48.9,47.2,30.27,NW,308,0.0,0.0,94,0.00,,,0.00,WeatherCatV1.15B25,2013-08-18 05:47:00,
2013-08-18 01:53:00,48.8,47.2,30.27,NW,308,0.0,0.0,94,0.00,,,0.00,WeatherCatV1.15B25,2013-08-18 05:53:00,
2013-08-18 01:58:00,48.7,47.0,30.26,NW,308,0.0,0.0,94,0.00,,,0.00,WeatherCatV1.15B25,2013-08-18 05:58:00,
2013-08-18 02:03:00,48.7,47.0,30.26,NW,307,0.0,0.0,94,0.00,,,0.00,WeatherCatV1.15B25,2013-08-18 06:03:00,
2013-08-18 02:08:00,48.7,47.0,30.26,NW,308,0.0,0.0,94,0.00,,,0.00,WeatherCatV1.15B25,2013-08-18 06:08:00,
2013-08-18 02:13:00,48.5,46.9,30.25,NW,308,0.0,0.0,94,0.00,,,0.00,WeatherCatV1.15B25,2013-08-18 06:13:00,
2013-08-18 02:18:00,48.4,46.8,30.26,NW,308,0.0,0.0,94,0.00,,,0.00,WeatherCatV1.15B25,2013-08-18 06:18:00,
2013-08-18 02:23:00,48.3,46.7,30.26,NW,307,0.0,0.0,94,0.00,,,0.00,WeatherCatV1.15B25,2013-08-18 06:23:00,
2013-08-18 02:28:00,48.4,46.8,30.26,NW,308,0.0,0.0,94,0.00,,,0.00,WeatherCatV1.15B25,2013-08-18 06:28:00,
2013-08-18 02:33:00,48.7,47.0,30.26,NW,308,0.0,0.0,94,0.00,,,0.00,WeatherCatV1.15B25,2013-08-18 06:33:00,
2013-08-18 02:38:00,48.7,47.0,30.26,NW,308,0.0,0.0,94,0.00,,,0.00,WeatherCatV1.15B25,2013-08-18 06:38:00,
2013-08-18 02:43:00,48.7,47.0,30.26,NW,307,0.0,0.0,94,0.00,,,0.00,WeatherCatV1.15B25,2013-08-18 06:43:00,
2013-08-18 02:48:00,48.6,47.0,30.26,NW,307,0.0,0.0,94,0.00,,,0.00,WeatherCatV1.15B25,2013-08-18 06:48:00,
2013-08-18 02:53:00,48.7,47.0,30.26,NW,308,0.0,1.0,94,0.00,,,0.00,WeatherCatV1.15B25,2013-08-18 06:53:00,
2013-08-18 02:58:00,48.8,47.2,30.25,NW,307,0.0,0.0,94,0.00,,,0.00,WeatherCatV1.15B25,2013-08-18 06:58:00,
2013-08-18 03:03:00,48.7,47.0,30.25,NW,308,0.0,0.0,94,0.00,,,0.00,WeatherCatV1.15B25,2013-08-18 07:03:00,
2013-08-18 03:08:00,48.9,47.2,30.25,NW,308,0.0,0.0,94,0.00,,,0.00,WeatherCatV1.15B25,2013-08-18 07:08:00,
2013-08-18 03:13:00,48.8,47.2,30.25,NW,308,0.0,0.0,94,0.00,,,0.00,WeatherCatV1.15B25,2013-08-18 07:13:00,
2013-08-18 03:18:00,48.8,47.2,30.25,NW,308,0.0,0.0,94,0.00,,,0.00,WeatherCatV1.15B25,2013-08-18 07:18:00,
2013-08-18 03:23:00,48.8,47.2,30.26,NW,307,0.0,1.0,94,0.00,,,0.00,WeatherCatV1.15B25,2013-08-18 07:23:00,
2013-08-18 03:28:00,48.8,47.2,30.25,NW,308,0.0,0.0,94,0.00,,,0.00,WeatherCatV1.15B25,2013-08-18 07:28:00,
2013-08-18 03:33:00,48.9,47.2,30.25,NW,308,0.0,0.0,94,0.00,,,0.00,WeatherCatV1.15B25,2013-08-18 07:33:00,
2013-08-18 03:38:00,48.8,47.2,30.25,NW,307,0.0,0.0,94,0.00,,,0.00,WeatherCatV1.15B25,2013-08-18 07:38:00,
2013-08-18 03:43:00,48.6,47.0,30.25,NW,308,0.0,0.0,94,0.00,,,0.00,WeatherCatV1.15B25,2013-08-18 07:43:00,
2013-08-18 03:48:00,48.7,47.3,30.26,NW,308,0.0,0.0,95,0.00,,,0.00,WeatherCatV1.15B25,2013-08-18 07:48:00,
2013-08-18 03:53:00,48.8,47.4,30.26,NW,308,0.0,0.0,95,0.00,,,0.00,WeatherCatV1.15B25,2013-08-18 07:53:00,
2013-08-18 03:58:00,48.9,47.5,30.26,NW,308,0.0,0.0,95,0.00,,,0.00,WeatherCatV1.15B25,2013-08-18 07:58:00,
2013-08-18 04:03:00,48.8,47.2,30.26,NW,308,0.0,0.0,94,0.00,,,0.00,WeatherCatV1.15B25,2013-08-18 08:03:00,
2013-08-18 04:08:00,48.7,47.0,30.26,NW,308,0.0,0.0,94,0.00,,,0.00,WeatherCatV1.15B25,2013-08-18 08:08:00,
2013-08-18 04:13:00,48.7,47.3,30.26,NW,308,0.0,0.0,95,0.00,,,0.00,WeatherCatV1.15B25,2013-08-18 08:13:00,
2013-08-18 04:18:00,48.7,47.3,30.26,NW,307,0.0,0.0,95,0.00,,,0.00,WeatherCatV1.15B25,2013-08-18 08:18:00,
2013-08-18 04:23:00,48.8,47.4,30.26,NW,308,0.0,0.0,95,0.00,,,0.00,WeatherCatV1.15B25,2013-08-18 08:23:00,
2013-08-18 04:28:00,48.9,47.5,30.26,NW,308,0.0,0.0,95,0.00,,,0.00,WeatherCatV1.15B25,2013-08-18 08:28:00,
2013-08-18 04:33:00,48.9,47.5,30.26,NW,307,0.0,0.0,95,0.00,,,0.00,WeatherCatV1.15B25,2013-08-18 08:33:00,
2013-08-18 04:38:00,48.9,47.5,30.25,NW,307,0.0,0.0,95,0.00,,,0.00,WeatherCatV1.15B25,2013-08-18 08:38:00,
2013-08-18 04:43:00,48.8,47.4,30.25,NW,308,0.0,0.0,95,0.00,,,0.00,WeatherCatV1.15B25,2013-08-18 08:43:00,
2013-08-18 04:48:00,48.8,47.4,30.26,NW,307,0.0,0.0,95,0.00,,,0.00,WeatherCatV1.15B25,2013-08-18 08:48:00,
2013-08-18 04:53:00,48.8,47.4,30.25,NW,307,0.0,1.0,95,0.00,,,0.00,WeatherCatV1.15B25,2013-08-18 08:53:00,
2013-08-18 04:58:00,48.8,47.4,30.25,NW,308,0.0,0.0,95,0.00,,,0.00,WeatherCatV1.15B25,2013-08-18 08:58:00,
2013-08-18 05:03:00,48.9,47.5,30.26,NW,308,0.0,0.0,95,0.00,,,0.00,WeatherCatV1.15B25,2013-08-18 09:03:00,
2013-08-18 05:08:00,48.9,47.5,30.26,NW,307,0.0,0.0,95,0.00,,,0.00,WeatherCatV1.15B25,2013-08-18 09:08:00,
2013-08-18 05:13:00,49.0,47.6,30.26,NW,308,0.0,1.0,95,0.00,,,0.00,WeatherCatV1.15B25,2013-08-18 09:13:00,
2013-08-18 05:18:00,49.0,47.6,30.25,NW,308,0.0,0.0,95,0.00,,,0.00,WeatherCatV1.15B25,2013-08-18 09:18:00,
2013-08-18 05:23:00,49.0,47.6,30.25,NW,308,0.0,0.0,95,0.00,,,0.00,WeatherCatV1.15B25,2013-08-18 09:23:00,
2013-08-18 05:28:00,48.9,47.5,30.26,NW,307,0.0,0.0,95,0.00,,,0.00,WeatherCatV1.15B25,2013-08-18 09:28:00,
2013-08-18 05:33:00,49.0,47.6,30.25,NW,307,0.0,0.0,95,0.00,,,0.00,WeatherCatV1.15B25,2013-08-18 09:33:00,
2013-08-18 05:38:00,49.1,47.7,30.25,NW,308,0.0,0.0,95,0.00,,,0.00,WeatherCatV1.15B25,2013-08-18 09:38:00,
2013-08-18 05:43:00,49.2,47.8,30.25,NW,308,0.0,0.0,95,0.00,,,0.00,WeatherCatV1.15B25,2013-08-18 09:43:00,
2013-08-18 05:48:00,49.1,47.7,30.26,NW,307,0.0,0.0,95,0.00,,,0.00,WeatherCatV1.15B25,2013-08-18 09:48:00,
2013-08-18 05:53:00,49.2,47.8,30.26,NW,308,0.0,0.0,95,0.00,,,0.00,WeatherCatV1.15B25,2013-08-18 09:53:00,
2013-08-18 05:58:00,49.2,47.8,30.26,NW,308,0.0,0.0,95,0.00,,,0.00,WeatherCatV1.15B25,2013-08-18 09:58:00,
2013-08-18 06:03:00,49.4,48.0,30.27,NW,307,0.0,0.0,95,0.00,,,0.00,WeatherCatV1.15B25,2013-08-18 10:03:00,
2013-08-18 06:08:00,49.3,47.9,30.27,NW,307,0.0,0.0,95,0.00,,,0.00,WeatherCatV1.15B25,2013-08-18 10:08:00,
2013-08-18 06:13:00,49.5,48.1,30.27,NW,308,0.0,1.0,95,0.00,,,0.00,WeatherCatV1.15B25,2013-08-18 10:13:00,
2013-08-18 06:18:00,49.6,48.2,30.27,NW,308,0.0,0.0,95,0.00,,,0.00,WeatherCatV1.15B25,2013-08-18 10:18:00,
2013-08-18 06:23:00,49.6,48.2,30.27,NW,307,0.0,0.0,95,0.00,,,0.00,WeatherCatV1.15B25,2013-08-18 10:23:00,
2013-08-18 06:28:00,49.6,48.2,30.27,NW,308,0.0,0.0,95,0.00,,,0.00,WeatherCatV1.15B25,2013-08-18 10:28:00,
2013-08-18 06:33:00,49.7,48.3,30.27,NW,308,0.0,0.0,95,0.00,,,0.00,WeatherCatV1.15B25,2013-08-18 10:33:00,
2013-08-18 06:38:00,49.9,48.5,30.27,NW,308,0.0,0.0,95,0.00,,,0.00,WeatherCatV1.15B25,2013-08-18 10:38:00,
2013-08-18 06:43:00,50.0,48.6,30.27,NW,308,0.0,0.0,95,0.00,,,0.00,WeatherCatV1.15B25,2013-08-18 10:43:00,
2013-08-18 06:48:00,50.1,48.7,30.27,NW,307,0.0,0.0,95,0.00,,,0.00,WeatherCatV1.15B25,2013-08-18 10:48:00,
2013-08-18 06:53:00,50.3,48.9,30.27,NW,307,0.0,0.0,95,0.00,,,0.00,WeatherCatV1.15B25,2013-08-18 10:53:00,
2013-08-18 06:58:00,50.5,49.1,30.27,NW,307,0.0,0.0,95,0.00,,,0.00,WeatherCatV1.15B25,2013-08-18 10:58:00,
2013-08-18 07:03:00,50.6,49.2,30.28,NW,307,0.0,0.0,95,0.00,,,0.00,WeatherCatV1.15B25,2013-08-18 11:03:00,
2013-08-18 07:08:00,50.9,49.8,30.27,NW,307,0.0,0.0,96,0.00,,,0.00,WeatherCatV1.15B25,2013-08-18 11:08:00,
2013-08-18 07:13:00,51.1,50.0,30.27,NW,308,0.0,0.0,96,0.00,,,0.00,WeatherCatV1.15B25,2013-08-18 11:13:00,
2013-08-18 07:18:00,51.3,49.9,30.27,NW,307,0.0,0.0,95,0.00,,,0.00,WeatherCatV1.15B25,2013-08-18 11:18:00,
2013-08-18 07:23:00,51.6,50.5,30.27,NW,307,0.0,0.0,96,0.00,,,0.00,WeatherCatV1.15B25,2013-08-18 11:23:00,
2013-08-18 07:28:00,51.9,50.8,30.28,NW,308,0.0,0.0,96,0.00,,,0.00,WeatherCatV1.15B25,2013-08-18 11:28:00,
2013-08-18 07:33:00,52.1,51.0,30.27,NW,308,0.0,0.0,96,0.00,,,0.00,WeatherCatV1.15B25,2013-08-18 11:33:00,
2013-08-18 07:38:00,52.3,51.2,30.27,NW,308,0.0,1.0,96,0.00,,,0.00,WeatherCatV1.15B25,2013-08-18 11:38:00,
2013-08-18 07:43:00,52.6,51.5,30.27,NW,308,0.0,0.0,96,0.00,,,0.00,WeatherCatV1.15B25,2013-08-18 11:43:00,
2013-08-18 07:48:00,53.0,51.9,30.27,NW,308,0.0,0.0,96,0.00,,,0.00,WeatherCatV1.15B25,2013-08-18 11:48:00,
2013-08-18 07:53:00,53.5,52.4,30.26,NW,308,0.0,0.0,96,0.00,,,0.00,WeatherCatV1.15B25,2013-08-18 11:53:00,
2013-08-18 07:58:00,54.0,52.9,30.26,NW,307,0.0,0.0,96,0.00,,,0.00,WeatherCatV1.15B25,2013-08-18 11:58:00,
2013-08-18 08:03:00,54.4,53.3,30.26,NW,308,0.0,0.0,96,0.00,,,0.00,WeatherCatV1.15B25,2013-08-18 12:03:00,
2013-08-18 08:08:00,54.9,53.8,30.26,NW,308,0.0,0.0,96,0.00,,,0.00,WeatherCatV1.15B25,2013-08-18 12:08:00,
2013-08-18 08:13:00,55.4,54.3,30.26,NW,308,0.0,0.0,96,0.00,,,0.00,WeatherCatV1.15B25,2013-08-18 12:13:00,
2013-08-18 08:18:00,56.1,55.0,30.26,NW,307,0.0,0.0,96,0.00,,,0.00,WeatherCatV1.15B25,2013-08-18 12:18:00,
2013-08-18 08:23:00,56.6,55.5,30.26,NW,308,0.0,0.0,96,0.00,,,0.00,WeatherCatV1.15B25,2013-08-18 12:23:00,
2013-08-18 08:28:00,57.1,56.0,30.26,NW,308,0.0,0.0,96,0.00,,,0.00,WeatherCatV1.15B25,2013-08-18 12:28:00,
2013-08-18 08:33:00,57.6,56.5,30.26,NW,307,0.0,0.0,96,0.00,,,0.00,WeatherCatV1.15B25,2013-08-18 12:33:00,
2013-08-18 08:38:00,58.0,56.9,30.25,NW,308,0.0,0.0,96,0.00,,,0.00,WeatherCatV1.15B25,2013-08-18 12:38:00,
2013-08-18 08:43:00,58.4,57.3,30.25,NW,308,0.0,0.0,96,0.00,,,0.00,WeatherCatV1.15B25,2013-08-18 12:43:00,
2013-08-18 08:48:00,59.0,57.6,30.25,NW,308,0.0,0.0,95,0.00,,,0.00,WeatherCatV1.15B25,2013-08-18 12:48:00,
2013-08-18 08:53:00,59.4,58.0,30.25,NW,307,0.0,0.0,95,0.00,,,0.00,WeatherCatV1.15B25,2013-08-18 12:53:00,
2013-08-18 08:58:00,59.9,58.5,30.25,NW,308,0.0,0.0,95,0.00,,,0.00,WeatherCatV1.15B25,2013-08-18 12:58:00,
2013-08-18 09:03:00,60.3,58.6,30.25,NW,308,0.0,0.0,94,0.00,,,0.00,WeatherCatV1.15B25,2013-08-18 13:03:00,
2013-08-18 09:08:00,60.8,59.1,30.25,NW,309,0.0,0.0,94,0.00,,,0.00,WeatherCatV1.15B25,2013-08-18 13:08:00,
2013-08-18 09:13:00,61.2,59.2,30.25,NW,309,0.0,0.0,93,0.00,,,0.00,WeatherCatV1.15B25,2013-08-18 13:13:00,
2013-08-18 09:18:00,61.5,59.5,30.25,NW,309,0.0,0.0,93,0.00,,,0.00,WeatherCatV1.15B25,2013-08-18 13:18:00,
2013-08-18 09:23:00,61.8,59.4,30.25,NW,309,0.0,0.0,92,0.00,,,0.00,WeatherCatV1.15B25,2013-08-18 13:23:00,
2013-08-18 09:28:00,62.2,59.5,30.25,NW,309,0.0,0.0,91,0.00,,,0.00,WeatherCatV1.15B25,2013-08-18 13:28:00,
2013-08-18 09:33:00,62.4,59.4,30.25,NW,309,0.0,0.0,90,0.00,,,0.00,WeatherCatV1.15B25,2013-08-18 13:33:00,
2013-08-18 09:38:00,62.6,59.3,30.25,NW,309,0.0,0.0,89,0.00,,,0.00,WeatherCatV1.15B25,2013-08-18 13:38:00,
2013-08-18 09:43:00,62.9,59.6,30.24,NW,309,0.0,0.0,89,0.00,,,0.00,WeatherCatV1.15B25,2013-08-18 13:43:00,
2013-08-18 09:48:00,63.3,59.7,30.24,NW,309,0.0,0.0,88,0.00,,,0.00,WeatherCatV1.15B25,2013-08-18 13:48:00,
2013-08-18 09:53:00,63.8,58.9,30.24,NW,309,0.0,0.0,84,0.00,,,0.00,WeatherCatV1.15B25,2013-08-18 13:53:00,
2013-08-18 09:58:00,64.3,58.7,30.24,NW,309,0.0,0.0,82,0.00,,,0.00,WeatherCatV1.15B25,2013-08-18 13:58:00,
2013-08-18 10:03:00,64.7,59.4,30.24,NW,309,0.0,0.0,83,0.00,,,0.00,WeatherCatV1.15B25,2013-08-18 14:03:00,
2013-08-18 10:08:00,64.9,59.9,30.24,NW,309,0.0,0.0,84,0.00,,,0.00,WeatherCatV1.15B25,2013-08-18 14:08:00,
2013-08-18 10:13:00,65.2,59.9,30.24,NW,309,0.0,0.0,83,0.00,,,0.00,WeatherCatV1.15B25,2013-08-18 14:13:00,
2013-08-18 10:18:00,65.4,59.4,30.24,NW,309,0.0,0.0,81,0.00,,,0.00,WeatherCatV1.15B25,2013-08-18 14:18:00,
2013-08-18 10:23:00,66.0,60.3,30.24,NW,309,0.0,0.0,82,0.00,,,0.00,WeatherCatV1.15B25,2013-08-18 14:23:00,
2013-08-18 10:28:00,66.5,59.1,30.23,NW,309,0.0,0.0,77,0.00,,,0.00,WeatherCatV1.15B25,2013-08-18 14:28:00,
2013-08-18 10:33:00,67.2,59.7,30.23,NW,309,0.0,0.0,77,0.00,,,0.00,WeatherCatV1.15B25,2013-08-18 14:33:00,
2013-08-18 10:38:00,67.7,60.2,30.23,NW,309,0.0,0.0,77,0.00,,,0.00,WeatherCatV1.15B25,2013-08-18 14:38:00,
2013-08-18 10:43:00,68.1,61.7,30.23,NW,309,0.0,0.0,80,0.00,,,0.00,WeatherCatV1.15B25,2013-08-18 14:43:00,
2013-08-18 10:48:00,68.1,61.3,30.23,NW,309,0.0,0.0,79,0.00,,,0.00,WeatherCatV1.15B25,2013-08-18 14:48:00,
2013-08-18 10:53:00,68.5,62.4,30.22,NW,309,0.0,0.0,81,0.00,,,0.00,WeatherCatV1.15B25,2013-08-18 14:53:00,
2013-08-18 10:58:00,68.5,61.0,30.22,NW,309,0.0,1.0,77,0.00,,,0.00,WeatherCatV1.15B25,2013-08-18 14:58:00,
2013-08-18 11:03:00,69.0,62.2,30.22,NW,309,0.0,0.0,79,0.00,,,0.00,WeatherCatV1.15B25,2013-08-18 15:03:00,
2013-08-18 11:08:00,69.5,62.7,30.23,NW,309,1.0,1.0,79,0.00,,,0.00,WeatherCatV1.15B25,2013-08-18 15:08:00,
2013-08-18 11:13:00,69.7,58.7,30.22,NW,309,0.0,1.0,68,0.00,,,0.00,WeatherCatV1.15B25,2013-08-18 15:13:00,
2013-08-18 11:18:00,69.9,58.0,30.22,SSE,166,0.0,2.0,66,0.00,,,0.00,WeatherCatV1.15B25,2013-08-18 15:18:00,
2013-08-18 11:23:00,70.2,61.1,30.22,ESE,119,0.0,0.0,73,0.00,,,0.00,WeatherCatV1.15B25,2013-08-18 15:23:00,
2013-08-18 11:28:00,70.4,61.3,30.22,East,92,3.0,3.0,73,0.00,,,0.00,WeatherCatV1.15B25,2013-08-18 15:28:00,
2013-08-18 11:33:00,70.6,59.1,30.22,North,5,0.0,1.0,67,0.00,,,0.00,WeatherCatV1.15B25,2013-08-18 15:33:00,
2013-08-18 11:38:00,71.0,57.3,30.22,NE,51,0.0,2.0,62,0.00,,,0.00,WeatherCatV1.15B25,2013-08-18 15:38:00,
2013-08-18 11:43:00,71.3,60.6,30.22,NE,53,0.0,1.0,69,0.00,,,0.00,WeatherCatV1.15B25,2013-08-18 15:43:00,
2013-08-18 11:48:00,71.6,57.9,30.22,ENE,64,2.0,4.0,62,0.00,,,0.00,WeatherCatV1.15B25,2013-08-18 15:48:00,
2013-08-18 11:53:00,71.7,61.0,30.22,ENE,64,1.0,1.0,69,0.00,,,0.00,WeatherCatV1.15B25,2013-08-18 15:53:00,
2013-08-18 11:59:00,71.6,62.1,30.21,ENE,64,0.0,1.0,72,0.00,,,0.00,WeatherCatV1.15B25,2013-08-18 15:59:00,
2013-08-18 12:04:00,71.4,58.6,30.21,ENE,64,0.0,1.0,64,0.00,,,0.00,WeatherCatV1.15B25,2013-08-18 16:04:00,
2013-08-18 12:10:00,71.7,57.1,30.21,East,80,0.0,3.0,60,0.00,,,0.00,WeatherCatV1.15B25,2013-08-18 16:10:00,
2013-08-18 12:15:00,71.8,60.2,30.21,NE,52,0.0,2.0,67,0.00,,,0.00,WeatherCatV1.15B25,2013-08-18 16:15:00,
2013-08-18 12:20:00,72.0,61.7,30.20,NE,52,0.0,1.0,70,0.00,,,0.00,WeatherCatV1.15B25,2013-08-18 16:20:00,
2013-08-18 12:25:00,71.8,58.1,30.20,NE,52,0.0,1.0,62,0.00,,,0.00,WeatherCatV1.15B25,2013-08-18 16:25:00,
2013-08-18 12:30:00,72.2,62.3,30.20,NE,52,0.0,1.0,71,0.00,,,0.00,WeatherCatV1.15B25,2013-08-18 16:30:00,
2013-08-18 12:35:00,72.6,56.5,30.19,WSW,246,0.0,1.0,57,0.00,,,0.00,WeatherCatV1.15B25,2013-08-18 16:35:00,
2013-08-18 12:40:00,73.1,61.9,30.19,WSW,245,0.0,0.0,68,0.00,,,0.00,WeatherCatV1.15B25,2013-08-18 16:40:00,
2013-08-18 12:45:00,73.4,63.0,30.19,WSW,246,0.0,1.0,70,0.00,,,0.00,WeatherCatV1.15B25,2013-08-18 16:45:00,
2013-08-18 12:50:00,73.8,59.0,30.19,ESE,121,0.0,1.0,60,0.00,,,0.00,WeatherCatV1.15B25,2013-08-18 16:50:00,
2013-08-18 12:55:00,74.3,60.0,30.18,North,351,2.0,2.0,61,0.00,,,0.00,WeatherCatV1.15B25,2013-08-18 16:55:00,
2013-08-18 13:00:00,74.7,58.9,30.18,North,355,0.0,0.0,58,0.00,,,0.00,WeatherCatV1.15B25,2013-08-18 17:00:00,
2013-08-18 13:05:00,75.3,62.7,30.18,NNW,346,3.0,3.0,65,0.00,,,0.00,WeatherCatV1.15B25,2013-08-18 17:05:00,
2013-08-18 13:10:00,75.4,58.6,30.18,WSW,255,1.0,1.0,56,0.00,,,0.00,WeatherCatV1.15B25,2013-08-18 17:10:00,
2013-08-18 13:15:00,75.4,61.9,30.18,WSW,255,0.0,2.0,63,0.00,,,0.00,WeatherCatV1.15B25,2013-08-18 17:15:00,
2013-08-18 13:20:00,75.3,61.4,30.18,West,261,0.0,1.0,62,0.00,,,0.00,WeatherCatV1.15B25,2013-08-18 17:20:00,
2013-08-18 13:25:00,75.1,61.2,30.18,West,261,0.0,1.0,62,0.00,,,0.00,WeatherCatV1.15B25,2013-08-18 17:25:00,
2013-08-18 13:30:00,75.1,61.2,30.17,West,261,0.0,0.0,62,0.00,,,0.00,WeatherCatV1.15B25,2013-08-18 17:30:00,
2013-08-18 13:35:00,75.1,61.2,30.17,West,263,0.0,3.0,62,0.00,,,0.00,WeatherCatV1.15B25,2013-08-18 17:35:00,
2013-08-18 13:40:00,74.6,61.2,30.17,West,263,0.0,1.0,63,0.00,,,0.00,WeatherCatV1.15B25,2013-08-18 17:40:00,
2013-08-18 13:45:00,74.2,58.5,30.17,West,263,0.0,2.0,58,0.00,,,0.00,WeatherCatV1.15B25,2013-08-18 17:45:00,
2013-08-18 13:50:00,74.4,61.8,30.17,West,263,0.0,1.0,65,0.00,,,0.00,WeatherCatV1.15B25,2013-08-18 17:50:00,
2013-08-18 13:55:00,74.2,63.4,30.17,West,263,0.0,0.0,69,0.00,,,0.00,WeatherCatV1.15B25,2013-08-18 17:55:00,
2013-08-18 14:00:00,73.9,61.4,30.16,West,263,0.0,0.0,65,0.00,,,0.00,WeatherCatV1.15B25,2013-08-18 18:00:00,
2013-08-18 14:05:00,74.0,61.5,30.16,West,263,1.0,1.0,65,0.00,,,0.00,WeatherCatV1.15B25,2013-08-18 18:05:00,
2013-08-18 14:10:00,74.4,63.1,30.16,West,263,0.0,1.0,68,0.00,,,0.00,WeatherCatV1.15B25,2013-08-18 18:10:00,
2013-08-18 14:15:00,74.8,59.5,30.16,West,263,0.0,1.0,59,0.00,,,0.00,WeatherCatV1.15B25,2013-08-18 18:15:00,
2013-08-18 14:20:00,75.0,58.2,30.16,West,263,0.0,1.0,56,0.00,,,0.00,WeatherCatV1.15B25,2013-08-18 18:20:00,
2013-08-18 14:25:00,75.5,62.9,30.15,West,263,0.0,0.0,65,0.00,,,0.00,WeatherCatV1.15B25,2013-08-18 18:25:00,
2013-08-18 14:30:00,75.9,62.4,30.16,West,263,0.0,2.0,63,0.00,,,0.00,WeatherCatV1.15B25,2013-08-18 18:30:00,
2013-08-18 14:35:00,75.8,58.5,30.16,West,263,0.0,1.0,55,0.00,,,0.00,WeatherCatV1.15B25,2013-08-18 18:35:00,
2013-08-18 14:40:00,75.6,58.3,30.15,NW,304,0.0,0.0,55,0.00,,,0.00,WeatherCatV1.15B25,2013-08-18 18:40:00,
2013-08-18 14:45:00,75.5,59.7,30.15,NW,304,0.0,0.0,58,0.00,,,0.00,WeatherCatV1.15B25,2013-08-18 18:45:00,
2013-08-18 14:50:00,75.1,59.8,30.15,NW,304,0.0,0.0,59,0.00,,,0.00,WeatherCatV1.15B25,2013-08-18 18:50:00,
2013-08-18 14:55:00,74.5,59.2,30.14,NW,304,0.0,0.0,59,0.00,,,0.00,WeatherCatV1.15B25,2013-08-18 18:55:00,
2013-08-18 15:00:00,74.2,59.9,30.14,NW,304,0.0,0.0,61,0.00,,,0.00,WeatherCatV1.15B25,2013-08-18 19:00:00,
2013-08-18 15:05:00,74.3,59.5,30.14,WNW,303,0.0,0.0,60,0.00,,,0.00,WeatherCatV1.15B25,2013-08-18 19:05:00,
2013-08-18 15:10:00,74.7,61.2,30.13,WNW,303,1.0,1.0,63,0.00,,,0.00,WeatherCatV1.15B25,2013-08-18 19:10:00,
2013-08-18 15:15:00,74.4,61.0,30.13,NE,52,0.0,0.0,63,0.00,,,0.00,WeatherCatV1.15B25,2013-08-18 19:15:00,
2013-08-18 15:20:00,74.1,56.9,30.13,NE,52,0.0,1.0,55,0.00,,,0.00,WeatherCatV1.15B25,2013-08-18 19:20:00,
2013-08-18 15:25:00,74.5,60.6,30.12,NE,52,0.0,0.0,62,0.00,,,0.00,WeatherCatV1.15B25,2013-08-18 19:25:00,
2013-08-18 15:30:00,74.9,61.0,30.13,NE,52,0.0,1.0,62,0.00,,,0.00,WeatherCatV1.15B25,2013-08-18 19:30:00,
2013-08-18 15:35:00,75.1,55.7,30.13,South,188,0.0,1.0,51,0.00,,,0.00,WeatherCatV1.15B25,2013-08-18 19:35:00,
2013-08-18 15:40:00,75.2,61.7,30.12,SE,146,0.0,2.0,63,0.00,,,0.00,WeatherCatV1.15B25,2013-08-18 19:40:00,
2013-08-18 15:45:00,75.0,58.2,30.12,SE,145,0.0,1.0,56,0.00,,,0.00,WeatherCatV1.15B25,2013-08-18 19:45:00,
2013-08-18 15:50:00,75.1,59.3,30.12,SSE,155,1.0,1.0,58,0.00,,,0.00,WeatherCatV1.15B25,2013-08-18 19:50:00,
2013-08-18 15:55:00,75.2,62.2,30.12,SSE,155,0.0,0.0,64,0.00,,,0.00,WeatherCatV1.15B25,2013-08-18 19:55:00,
2013-08-18 16:00:00,75.1,61.6,30.12,SSE,155,1.0,1.0,63,0.00,,,0.00,WeatherCatV1.15B25,2013-08-18 20:00:00,
2013-08-18 16:05:00,74.9,62.8,30.12,ENE,76,1.0,3.0,66,0.00,,,0.00,WeatherCatV1.15B25,2013-08-18 20:05:00,
2013-08-18 16:10:00,74.5,55.7,30.12,SE,134,0.0,1.0,52,0.00,,,0.00,WeatherCatV1.15B25,2013-08-18 20:10:00,
2013-08-18 16:15:00,74.6,62.0,30.12,North,0,2.0,2.0,65,0.00,,,0.00,WeatherCatV1.15B25,2013-08-18 20:15:00,
2013-08-18 16:20:00,74.2,61.7,30.12,East,86,1.0,3.0,65,0.00,,,0.00,WeatherCatV1.15B25,2013-08-18 20:20:00,
2013-08-18 16:25:00,73.2,58.5,30.12,WNW,283,2.0,5.0,60,0.00,,,0.00,WeatherCatV1.15B25,2013-08-18 20:25:00,
2013-08-18 16:30:00,72.6,55.5,30.12,ENE,76,3.0,3.0,55,0.00,,,0.00,WeatherCatV1.15B25,2013-08-18 20:30:00,
2013-08-18 16:35:00,72.2,60.2,30.12,SE,128,0.0,1.0,66,0.00,,,0.00,WeatherCatV1.15B25,2013-08-18 20:35:00,
2013-08-18 16:40:00,71.8,57.2,30.12,WSW,245,0.0,5.0,60,0.00,,,0.00,WeatherCatV1.15B25,2013-08-18 20:40:00,
2013-08-18 16:45:00,71.5,58.2,30.12,ENE,72,1.0,2.0,63,0.00,,,0.00,WeatherCatV1.15B25,2013-08-18 20:45:00,
2013-08-18 16:50:00,71.2,58.4,30.11,East,80,0.0,2.0,64,0.00,,,0.00,WeatherCatV1.15B25,2013-08-18 20:50:00,
2013-08-18 16:55:00,70.7,58.3,30.11,East,80,0.0,0.0,65,0.00,,,0.00,WeatherCatV1.15B25,2013-08-18 20:55:00,
2013-08-18 17:00:00,70.3,58.4,30.11,East,80,0.0,0.0,66,0.00,,,0.00,WeatherCatV1.15B25,2013-08-18 21:00:00,
2013-08-18 17:05:00,69.7,59.1,30.11,East,80,0.0,1.0,69,0.00,,,0.00,WeatherCatV1.15B25,2013-08-18 21:05:00,
2013-08-18 17:10:00,69.5,58.5,30.11,ENE,78,0.0,1.0,68,0.00,,,0.00,WeatherCatV1.15B25,2013-08-18 21:10:00,
2013-08-18 17:15:00,69.6,59.8,30.11,ENE,78,0.0,1.0,71,0.00,,,0.00,WeatherCatV1.15B25,2013-08-18 21:15:00,
2013-08-18 17:20:00,69.7,60.3,30.11,ENE,78,0.0,1.0,72,0.00,,,0.00,WeatherCatV1.15B25,2013-08-18 21:20:00,
2013-08-18 17:25:00,69.8,61.9,30.11,East,81,3.0,3.0,76,0.00,,,0.00,WeatherCatV1.15B25,2013-08-18 21:25:00,
2013-08-18 17:30:00,69.7,57.4,30.11,ENE,70,0.0,4.0,65,0.00,,,0.00,WeatherCatV1.15B25,2013-08-18 21:30:00,
2013-08-18 17:35:00,69.5,58.0,30.10,North,350,0.0,2.0,67,0.00,,,0.00,WeatherCatV1.15B25,2013-08-18 21:35:00,
2013-08-18 17:40:00,69.3,59.5,30.10,East,96,0.0,2.0,71,0.00,,,0.00,WeatherCatV1.15B25,2013-08-18 21:40:00,
2013-08-18 17:45:00,68.8,59.0,30.10,East,96,0.0,2.0,71,0.00,,,0.00,WeatherCatV1.15B25,2013-08-18 21:45:00,
2013-08-18 17:50:00,68.5,57.9,30.10,East,82,0.0,2.0,69,0.00,,,0.00,WeatherCatV1.15B25,2013-08-18 21:50:00,
2013-08-18 17:55:00,68.2,57.6,30.10,East,87,0.0,1.0,69,0.00,,,0.00,WeatherCatV1.15B25,2013-08-18 21:55:00,
2013-08-18 18:00:00,68.1,58.3,30.10,ENE,61,0.0,6.0,71,0.00,,,0.00,WeatherCatV1.15B25,2013-08-18 22:00:00,
2013-08-18 18:05:00,68.0,58.2,30.09,NE,47,0.0,4.0,71,0.00,,,0.00,WeatherCatV1.15B25,2013-08-18 22:05:00,
2013-08-18 18:10:00,67.9,58.1,30.09,East,94,2.0,5.0,71,0.00,,,0.00,WeatherCatV1.15B25,2013-08-18 22:10:00,
2013-08-18 18:15:00,67.9,58.5,30.09,ESE,105,0.0,3.0,72,0.00,,,0.00,WeatherCatV1.15B25,2013-08-18 22:15:00,
2013-08-18 18:20:00,67.9,58.1,30.09,NW,315,3.0,3.0,71,0.00,,,0.00,WeatherCatV1.15B25,2013-08-18 22:20:00,
2013-08-18 18:25:00,67.7,57.6,30.09,ENE,59,0.0,1.0,70,0.00,,,0.00,WeatherCatV1.15B25,2013-08-18 22:25:00,
2013-08-18 18:30:00,67.4,56.1,30.09,ENE,59,0.0,3.0,67,0.00,,,0.00,WeatherCatV1.15B25,2013-08-18 22:30:00,
2013-08-18 18:35:00,67.2,56.3,30.09,East,99,0.0,1.0,68,0.00,,,0.00,WeatherCatV1.15B25,2013-08-18 22:35:00,
2013-08-18 18:40:00,67.1,58.1,30.08,East,84,1.0,2.0,73,0.00,,,0.00,WeatherCatV1.15B25,2013-08-18 22:40:00,
2013-08-18 18:45:00,66.7,57.4,30.09,East,84,0.0,0.0,72,0.00,,,0.00,WeatherCatV1.15B25,2013-08-18 22:45:00,
2013-08-18 18:50:00,66.4,57.1,30.09,East,84,0.0,1.0,72,0.00,,,0.00,WeatherCatV1.15B25,2013-08-18 22:50:00,
2013-08-18 18:55:00,66.2,57.3,30.09,East,83,0.0,0.0,73,0.00,,,0.00,WeatherCatV1.15B25,2013-08-18 22:55:00,
2013-08-18 19:00:00,65.9,57.4,30.08,East,84,0.0,0.0,74,0.00,,,0.00,WeatherCatV1.15B25,2013-08-18 23:00:00,
2013-08-18 19:05:00,65.6,57.5,30.08,East,84,0.0,0.0,75,0.00,,,0.00,WeatherCatV1.15B25,2013-08-18 23:05:00,
2013-08-18 19:10:00,65.3,57.2,30.08,East,83,0.0,0.0,75,0.00,,,0.00,WeatherCatV1.15B25,2013-08-18 23:10:00,
2013-08-18 19:15:00,65.1,57.3,30.08,East,84,0.0,1.0,76,0.00,,,0.00,WeatherCatV1.15B25,2013-08-18 23:15:00,
2013-08-18 19:20:00,64.8,57.4,30.08,East,84,0.0,0.0,77,0.00,,,0.00,WeatherCatV1.15B25,2013-08-18 23:20:00,
2013-08-18 19:25:00,64.4,57.4,30.09,East,84,0.0,0.0,78,0.00,,,0.00,WeatherCatV1.15B25,2013-08-18 23:25:00,
2013-08-18 19:30:00,64.0,57.0,30.08,East,83,0.0,0.0,78,0.00,,,0.00,WeatherCatV1.15B25,2013-08-18 23:30:00,
2013-08-18 19:35:00,63.6,57.3,30.08,East,83,0.0,0.0,80,0.00,,,0.00,WeatherCatV1.15B25,2013-08-18 23:35:00,
2013-08-18 19:40:00,63.2,56.6,30.09,East,84,0.0,0.0,79,0.00,,,0.00,WeatherCatV1.15B25,2013-08-18 23:40:00,
2013-08-18 19:45:00,62.9,56.6,30.09,East,83,0.0,0.0,80,0.00,,,0.00,WeatherCatV1.15B25,2013-08-18 23:45:00,
2013-08-18 19:50:00,62.5,56.6,30.09,East,83,0.0,0.0,81,0.00,,,0.00,WeatherCatV1.15B25,2013-08-18 23:50:00,
2013-08-18 19:55:00,62.2,56.6,30.09,East,84,0.0,0.0,82,0.00,,,0.00,WeatherCatV1.15B25,2013-08-18 23:55:00,
2013-08-18 20:00:00,62.0,56.4,30.08,East,84,0.0,0.0,82,0.00,,,0.00,WeatherCatV1.15B25,2013-08-19 00:00:00,
2013-08-18 20:05:00,61.6,56.7,30.08,East,83,0.0,0.0,84,0.00,,,0.00,WeatherCatV1.15B25,2013-08-19 00:05:00,
2013-08-18 20:11:00,61.4,56.2,30.09,East,84,0.0,0.0,83,0.00,,,0.00,WeatherCatV1.15B25,2013-08-19 00:11:00,
2013-08-18 20:16:00,61.2,56.0,30.08,East,84,0.0,0.0,83,0.00,,,0.00,WeatherCatV1.15B25,2013-08-19 00:16:00,
2013-08-18 20:21:00,61.1,55.9,30.08,ESE,104,0.0,0.0,83,0.00,,,0.00,WeatherCatV1.15B25,2013-08-19 00:21:00,
2013-08-18 20:26:00,60.9,56.4,30.08,ESE,103,0.0,0.0,85,0.00,,,0.00,WeatherCatV1.15B25,2013-08-19 00:26:00,
2013-08-18 20:31:00,60.6,56.1,30.09,ESE,103,0.0,0.0,85,0.00,,,0.00,WeatherCatV1.15B25,2013-08-19 00:31:00,
2013-08-18 20:36:00,60.3,55.4,30.09,ESE,104,0.0,1.0,84,0.00,,,0.00,WeatherCatV1.15B25,2013-08-19 00:36:00,
2013-08-18 20:41:00,59.9,55.4,30.09,ESE,104,0.0,0.0,85,0.00,,,0.00,WeatherCatV1.15B25,2013-08-19 00:41:00,
2013-08-18 20:46:00,59.6,55.1,30.09,ESE,103,0.0,0.0,85,0.00,,,0.00,WeatherCatV1.15B25,2013-08-19 00:46:00,
2013-08-18 20:51:00,59.3,55.1,30.09,ESE,104,0.0,0.0,86,0.00,,,0.00,WeatherCatV1.15B25,2013-08-19 00:51:00,
2013-08-18 20:56:00,59.0,55.1,30.09,ESE,104,0.0,0.0,87,0.00,,,0.00,WeatherCatV1.15B25,2013-08-19 00:56:00,
2013-08-18 21:01:00,58.7,54.8,30.08,ESE,103,0.0,0.0,87,0.00,,,0.00,WeatherCatV1.15B25,2013-08-19 01:01:00,
2013-08-18 21:06:00,58.4,54.5,30.08,ESE,104,0.0,0.0,87,0.00,,,0.00,WeatherCatV1.15B25,2013-08-19 01:06:00,
2013-08-18 21:11:00,58.1,54.2,30.08,ESE,104,0.0,0.0,87,0.00,,,0.00,WeatherCatV1.15B25,2013-08-19 01:11:00,
2013-08-18 21:16:00,57.8,54.3,30.08,ESE,104,0.0,0.0,88,0.00,,,0.00,WeatherCatV1.15B25,2013-08-19 01:16:00,
2013-08-18 21:21:00,57.5,54.0,30.08,SW,214,0.0,4.0,88,0.00,,,0.00,WeatherCatV1.15B25,2013-08-19 01:21:00,
2013-08-18 21:26:00,57.4,53.9,30.08,SW,214,2.0,3.0,88,0.00,,,0.00,WeatherCatV1.15B25,2013-08-19 01:26:00,
2013-08-18 21:31:00,57.2,53.7,30.08,SSW,210,0.0,1.0,88,0.00,,,0.00,WeatherCatV1.15B25,2013-08-19 01:31:00,
2013-08-18 21:36:00,57.1,53.9,30.07,SSW,210,0.0,0.0,89,0.00,,,0.00,WeatherCatV1.15B25,2013-08-19 01:36:00,
2013-08-18 21:41:00,56.9,53.7,30.08,SSW,210,0.0,0.0,89,0.00,,,0.00,WeatherCatV1.15B25,2013-08-19 01:41:00,
2013-08-18 21:46:00,56.7,53.5,30.07,SSW,210,0.0,0.0,89,0.00,,,0.00,WeatherCatV1.15B25,2013-08-19 01:46:00,
2013-08-18 21:51:00,56.5,53.3,30.07,SSW,210,0.0,0.0,89,0.00,,,0.00,WeatherCatV1.15B25,2013-08-19 01:51:00,
2013-08-18 21:56:00,56.3,53.4,30.08,SSW,210,0.0,0.0,90,0.00,,,0.00,WeatherCatV1.15B25,2013-08-19 01:56:00,
2013-08-18 22:01:00,56.1,53.2,30.07,SSW,210,0.0,0.0,90,0.00,,,0.00,WeatherCatV1.15B25,2013-08-19 02:01:00,
2013-08-18 22:06:00,55.9,53.0,30.07,SSW,210,0.0,0.0,90,0.00,,,0.00,WeatherCatV1.15B25,2013-08-19 02:06:00,
2013-08-18 22:11:00,55.8,52.9,30.07,SSW,210,0.0,0.0,90,0.00,,,0.00,WeatherCatV1.15B25,2013-08-19 02:11:00,
2013-08-18 22:16:00,55.5,52.6,30.06,SSW,210,0.0,0.0,90,0.00,,,0.00,WeatherCatV1.15B25,2013-08-19 02:16:00,
2013-08-18 22:21:00,55.4,52.8,30.06,SSW,210,0.0,0.0,91,0.00,,,0.00,WeatherCatV1.15B25,2013-08-19 02:21:00,
2013-08-18 22:26:00,55.3,52.7,30.06,SSW,210,0.0,0.0,91,0.00,,,0.00,WeatherCatV1.15B25,2013-08-19 02:26:00,
2013-08-18 22:31:00,55.2,52.6,30.06,SSW,210,0.0,0.0,91,0.00,,,0.00,WeatherCatV1.15B25,2013-08-19 02:31:00,
2013-08-18 22:36:00,55.1,52.5,30.06,SSW,210,0.0,0.0,91,0.00,,,0.00,WeatherCatV1.15B25,2013-08-19 02:36:00,
2013-08-18 22:41:00,54.9,52.3,30.06,SSW,210,0.0,0.0,91,0.00,,,0.00,WeatherCatV1.15B25,2013-08-19 02:41:00,
2013-08-18 22:46:00,54.7,52.1,30.06,SSW,210,0.0,0.0,91,0.00,,,0.00,WeatherCatV1.15B25,2013-08-19 02:46:00,
2013-08-18 22:51:00,54.5,51.9,30.06,SSW,210,0.0,0.0,91,0.00,,,0.00,WeatherCatV1.15B25,2013-08-19 02:51:00,
2013-08-18 22:56:00,54.4,52.1,30.06,SSW,210,0.0,0.0,92,0.00,,,0.00,WeatherCatV1.15B25,2013-08-19 02:56:00,
2013-08-18 23:01:00,54.3,52.0,30.05,SSW,210,0.0,0.0,92,0.00,,,0.00,WeatherCatV1.15B25,2013-08-19 03:01:00,
2013-08-18 23:06:00,54.2,51.9,30.05,SSW,210,0.0,0.0,92,0.00,,,0.00,WeatherCatV1.15B25,2013-08-19 03:06:00,
2013-08-18 23:11:00,54.1,51.8,30.05,SSW,210,0.0,0.0,92,0.00,,,0.00,WeatherCatV1.15B25,2013-08-19 03:11:00,
2013-08-18 23:16:00,54.0,51.7,30.05,SSW,210,0.0,0.0,92,0.00,,,0.00,WeatherCatV1.15B25,2013-08-19 03:16:00,
2013-08-18 23:21:00,53.9,51.6,30.05,SSW,210,0.0,0.0,92,0.00,,,0.00,WeatherCatV1.15B25,2013-08-19 03:21:00,
2013-08-18 23:26:00,53.7,51.4,30.04,SSW,210,0.0,0.0,92,0.00,,,0.00,WeatherCatV1.15B25,2013-08-19 03:26:00,
2013-08-18 23:31:00,53.6,51.3,30.05,SSW,210,0.0,0.0,92,0.00,,,0.00,WeatherCatV1.15B25,2013-08-19 03:31:00,
2013-08-18 23:36:00,53.5,51.2,30.05,SSW,210,0.0,0.0,92,0.00,,,0.00,WeatherCatV1.15B25,2013-08-19 03:36:00,
2013-08-18 23:41:00,53.4,51.1,30.05,SSW,210,0.0,0.0,92,0.00,,,0.00,WeatherCatV1.15B25,2013-08-19 03:41:00,
2013-08-18 23:46:00,53.3,51.0,30.05,SSW,210,0.0,0.0,92,0.00,,,0.00,WeatherCatV1.15B25,2013-08-19 03:46:00,
2013-08-18 23:51:00,53.1,50.8,30.05,SSW,210,0.0,0.0,92,0.00,,,0.00,WeatherCatV1.15B25,2013-08-19 03:51:00,
2013-08-18 23:56:00,53.0,51.0,30.04,SSW,210,0.0,0.0,93,0.00,,,0.00,WeatherCatV1.15B25,2013-08-19 03:56:00,